Time;durP1;ratioP1;P1;durP2;ratioP2;P2;SDS_P1;SDS_P2;PMS_P1;PMS_P2;Temp;Humidity;BMP_temperature;BMP_pressure;BME280_temperature;BME280_humidity;BME280_pressure;Samples;Min_cycle;Max_cycle;Signal;HPM_P1;HPM_P2
2021/12/11 00:01:16;;;;;;;;;;;;;;;4.80;71.35;100462.91;5050607;28;19927;-60
2021/12/11 00:03:43;;;;;;;;;;;;;;;4.79;71.38;100470.28;5052531;28;19928;-61
2021/12/11 00:06:13;;;;;;;;;;;;;;;4.78;70.98;100470.53;5052027;28;19916;-60
2021/12/11 00:08:39;;;;;;;;;;;;;;;4.77;71.39;100475.19;5053693;28;20000;-61
2021/12/11 00:11:11;;;;;;;;;;;;;;;4.74;71.35;100480.28;5053255;28;20019;-61
2021/12/11 00:13:38;;;;;;;;;;;;;;;4.74;71.48;100483.03;5052218;28;19920;-61
2021/12/11 00:16:04;;;;;;;;;;;;;;;4.71;71.32;100487.06;5047240;28;19935;-60
2021/12/11 00:18:30;;;;;;;;;;;;;;;4.71;71.40;100492.56;5053040;28;19975;-61
2021/12/11 00:20:58;;;;;;;;;;;;;;;4.71;71.22;100498.06;5052488;28;20291;-60
2021/12/11 00:23:34;;;;;;;;;;;;;;;4.71;71.39;100499.97;5052521;28;19944;-60
2021/12/11 00:25:59;;;;;;;;;;;;;;;4.71;71.23;100513.72;5051185;28;19925;-60
2021/12/11 00:28:25;;;;;;;;;;;;;;;4.70;71.17;100514.78;5052894;28;19921;-60
2021/12/11 00:30:50;;;;;;;;;;;;;;;4.68;71.31;100517.78;5053202;28;20438;-60
2021/12/11 00:33:17;;;;;;;;;;;;;;;4.68;71.60;100526.88;5046661;28;20381;-60
2021/12/11 00:35:43;;;;;;;;;;;;;;;4.68;71.22;100528.78;5051924;28;19928;-60
2021/12/11 00:38:10;;;;;;;;;;;;;;;4.67;71.25;100533.41;5051495;28;19921;-60
2021/12/11 00:40:36;;;;;;;;;;;;;;;4.66;71.31;100542.72;5045061;28;19921;-60
2021/12/11 00:43:04;;;;;;;;;;;;;;;4.66;71.34;100534.47;5052132;28;20274;-60
2021/12/11 00:45:31;;;;;;;;;;;;;;;4.66;71.13;100542.72;5052191;28;20421;-60
2021/12/11 00:48:00;;;;;;;;;;;;;;;4.64;71.30;100550.38;5051712;28;19921;-60
2021/12/11 00:50:27;;;;;;;;;;;;;;;4.64;71.20;100553.13;5039557;28;20223;-60
2021/12/11 00:52:56;;;;;;;;;;;;;;;4.62;71.20;100551.66;5048543;28;20008;-59
2021/12/11 00:55:26;;;;;;;;;;;;;;;4.61;71.18;100559.06;5052561;28;19917;-60
2021/12/11 00:58:10;;;;;;;;;;;;;;;4.59;71.24;100563.91;5051835;28;19924;-60
2021/12/11 01:00:40;;;;;;;;;;;;;;;4.58;71.14;100569.63;5052709;28;20390;-60
2021/12/11 01:03:06;;;;;;;;;;;;;;;4.57;71.07;100577.06;5056374;28;20334;-60
2021/12/11 01:05:37;;;;;;;;;;;;;;;4.56;71.12;100578.13;5059286;28;19958;-60
2021/12/11 01:08:11;;;;;;;;;;;;;;;4.54;71.11;100582.97;5057751;28;19957;-59
2021/12/11 01:10:36;;;;;;;;;;;;;;;4.53;71.14;100583.22;5054385;28;19917;-60
2021/12/11 01:13:04;;;;;;;;;;;;;;;4.51;70.86;100588.91;5058999;28;19927;-60
2021/12/11 01:15:32;;;;;;;;;;;;;;;4.48;71.03;100589.38;5061441;28;19932;-60
2021/12/11 01:18:20;;;;;;;;;;;;;;;4.47;70.83;100598.66;5059524;28;19927;-60
2021/12/11 01:20:56;;;;;;;;;;;;;;;4.43;71.22;100598.25;5058677;28;19924;-60
2021/12/11 01:23:45;;;;;;;;;;;;;;;4.42;71.19;100606.72;5057702;28;20004;-60
2021/12/11 01:26:12;;;;;;;;;;;;;;;4.39;70.87;100610.75;5054560;28;19935;-60
2021/12/11 01:28:37;;;;;;;;;;;;;;;4.39;71.11;100612.66;5057341;28;20402;-60
2021/12/11 01:31:05;;;;;;;;;;;;;;;4.38;70.92;100616.47;5058915;28;19924;-60
2021/12/11 01:33:30;;;;;;;;;;;;;;;4.37;70.97;100626.63;5058644;28;20399;-60
2021/12/11 01:35:55;;;;;;;;;;;;;;;4.37;70.88;100634.03;5057724;28;20012;-60
2021/12/11 01:38:23;;;;;;;;;;;;;;;4.36;70.90;100646.06;5058319;28;19928;-60
2021/12/11 01:40:50;;;;;;;;;;;;;;;4.35;70.93;100647.13;5057853;28;19948;-60
2021/12/11 01:43:16;;;;;;;;;;;;;;;4.35;70.66;100660.88;5058081;28;19921;-61
2021/12/11 01:45:44;;;;;;;;;;;;;;;4.33;70.86;100661.09;5053417;28;19928;-61
2021/12/11 01:48:09;;;;;;;;;;;;;;;4.32;70.80;100667.66;5056726;28;20375;-60
2021/12/11 01:50:36;;;;;;;;;;;;;;;4.31;70.98;100670.59;5059161;28;19928;-60
2021/12/11 01:53:04;;;;;;;;;;;;;;;4.32;70.87;100684.16;5057850;28;19925;-61
2021/12/11 01:55:39;;;;;;;;;;;;;;;4.30;70.96;100690.91;5057620;28;20020;-60
2021/12/11 01:58:06;;;;;;;;;;;;;;;4.27;70.95;100694.06;5062112;28;19928;-61
2021/12/11 02:00:33;;;;;;;;;;;;;;;4.25;70.86;100710.78;5053566;28;19975;-60
2021/12/11 02:03:00;;;;;;;;;;;;;;;4.24;70.91;100709.06;5062502;28;19927;-60
2021/12/11 02:05:27;;;;;;;;;;;;;;;4.23;70.71;100723.03;5057803;28;19921;-60
2021/12/11 02:07:54;;;;;;;;;;;;;;;4.21;70.68;100715.03;5058163;28;19916;-60
2021/12/11 02:10:23;;;;;;;;;;;;;;;4.21;71.09;100714.19;5057977;28;20361;-60
2021/12/11 02:12:50;;;;;;;;;;;;;;;4.21;70.99;100719.69;5058506;28;19920;-60
2021/12/11 02:15:18;;;;;;;;;;;;;;;4.21;70.84;100720.53;5054872;28;20292;-60
2021/12/11 02:17:52;;;;;;;;;;;;;;;4.22;71.18;100726.84;5048598;28;20383;-61
2021/12/11 02:20:22;;;;;;;;;;;;;;;4.23;71.06;100728.53;5050214;28;19925;-60
2021/12/11 02:22:48;;;;;;;;;;;;;;;4.23;70.90;100728.53;5054766;28;19967;-60
2021/12/11 02:25:22;;;;;;;;;;;;;;;4.22;70.91;100733.19;5056199;28;19917;-60
2021/12/11 02:27:53;;;;;;;;;;;;;;;4.22;70.17;100735.09;5055066;28;19951;-61
2021/12/11 02:30:18;;;;;;;;;;;;;;;4.23;71.14;100745.84;5052402;28;19944;-60
2021/12/11 02:32:46;;;;;;;;;;;;;;;4.23;70.72;100756.84;5055227;28;20379;-60
2021/12/11 02:35:11;;;;;;;;;;;;;;;4.24;70.71;100760.44;5050487;28;20291;-61
2021/12/11 02:37:48;;;;;;;;;;;;;;;4.23;70.74;100772.50;5050657;28;22497;-60
2021/12/11 02:40:20;;;;;;;;;;;;;;;4.20;70.55;100765.50;5055227;28;20367;-60
2021/12/11 02:42:48;;;;;;;;;;;;;;;4.20;70.85;100779.25;5052554;28;20364;-60
2021/12/11 02:45:19;;;;;;;;;;;;;;;4.19;71.09;100770.16;5053993;28;19924;-61
2021/12/11 02:48:08;;;;;;;;;;;;;;;4.20;70.90;100782.00;5053152;28;20011;-60
2021/12/11 02:50:36;;;;;;;;;;;;;;;4.20;70.75;100784.75;5039915;28;19920;-60
2021/12/11 02:53:05;;;;;;;;;;;;;;;4.18;70.59;100787.72;5054610;28;19967;-60
2021/12/11 02:55:38;;;;;;;;;;;;;;;4.18;70.96;100793.19;5049092;28;19964;-60
2021/12/11 02:58:06;;;;;;;;;;;;;;;4.18;71.11;100803.34;5054478;28;19982;-60
2021/12/11 03:00:39;;;;;;;;;;;;;;;4.16;70.70;100795.31;5054674;28;19920;-60
2021/12/11 03:03:07;;;;;;;;;;;;;;;4.16;70.86;100795.31;5040658;28;19928;-60
2021/12/11 03:05:43;;;;;;;;;;;;;;;4.15;70.71;100804.59;5054448;28;19927;-60
2021/12/11 03:08:10;;;;;;;;;;;;;;;4.16;70.67;100808.19;5043616;28;19976;-61
2021/12/11 03:10:37;;;;;;;;;;;;;;;4.16;70.86;100816.44;5053179;28;19927;-60
2021/12/11 03:13:04;;;;;;;;;;;;;;;4.17;71.17;100820.91;5050454;28;20283;-60
2021/12/11 03:15:29;;;;;;;;;;;;;;;4.18;71.08;100822.59;5051774;28;19944;-60
2021/12/11 03:17:54;;;;;;;;;;;;;;;4.18;70.73;100820.69;5053475;28;19920;-61
2021/12/11 03:20:21;;;;;;;;;;;;;;;4.19;71.39;100814.13;5053874;28;19917;-60
2021/12/11 03:22:46;;;;;;;;;;;;;;;4.21;71.10;100829.56;5054645;28;19960;-60
2021/12/11 03:25:15;;;;;;;;;;;;;;;4.23;71.21;100828.28;5052438;28;20335;-60
2021/12/11 03:27:40;;;;;;;;;;;;;;;4.25;71.21;100830.84;5074383;28;19920;-60
2021/12/11 03:30:07;;;;;;;;;;;;;;;4.26;71.13;100836.09;5055418;28;19921;-60
2021/12/11 03:32:33;;;;;;;;;;;;;;;4.27;71.51;100839.69;5053412;28;19971;-60
2021/12/11 03:34:58;;;;;;;;;;;;;;;4.29;70.96;100841.19;5052292;28;19964;-61
2021/12/11 03:37:24;;;;;;;;;;;;;;;4.29;70.90;100841.19;5052735;28;19918;-60
2021/12/11 03:39:51;;;;;;;;;;;;;;;4.30;71.23;100839.28;5053010;28;19925;-60
2021/12/11 03:42:32;;;;;;;;;;;;;;;4.31;71.48;100840.94;5054037;28;20360;-60
2021/12/11 03:44:59;;;;;;;;;;;;;;;4.31;71.42;100840.94;5052139;28;20295;-60
2021/12/11 03:47:27;;;;;;;;;;;;;;;4.31;71.62;100847.28;5047282;28;19956;-60
2021/12/11 03:49:52;;;;;;;;;;;;;;;4.32;71.02;100849.00;5052577;28;20364;-61
2021/12/11 03:52:18;;;;;;;;;;;;;;;4.35;71.62;100850.47;5052824;28;19921;-60
2021/12/11 03:54:45;;;;;;;;;;;;;;;4.35;71.42;100858.72;5052757;28;19928;-60
2021/12/11 03:57:12;;;;;;;;;;;;;;;4.37;71.33;100856.59;5052924;28;19925;-60
2021/12/11 03:59:37;;;;;;;;;;;;;;;4.38;71.49;100850.03;5053072;28;20398;-61
2021/12/11 04:02:05;;;;;;;;;;;;;;;4.40;71.19;100862.53;5053527;28;19921;-61
2021/12/11 04:04:33;;;;;;;;;;;;;;;4.40;71.39;100868.03;5048321;28;19928;-60
2021/12/11 04:07:00;;;;;;;;;;;;;;;4.41;71.33;100871.63;5052508;28;19928;-60
2021/12/11 04:09:26;;;;;;;;;;;;;;;4.42;71.79;100865.06;5053267;28;19943;-60
2021/12/11 04:11:52;;;;;;;;;;;;;;;4.43;71.46;100867.56;5053619;28;20383;-61
2021/12/11 04:14:19;;;;;;;;;;;;;;;4.47;71.63;100878.16;5051817;28;20008;-60
2021/12/11 04:16:45;;;;;;;;;;;;;;;4.47;71.63;100872.66;5052173;28;19928;-61
2021/12/11 04:19:11;;;;;;;;;;;;;;;4.48;71.63;100885.31;5053363;28;19925;-60
2021/12/11 04:21:37;;;;;;;;;;;;;;;4.49;71.64;100881.53;5046254;28;19967;-61
2021/12/11 04:24:04;;;;;;;;;;;;;;;4.47;71.59;100884.50;5052580;28;19967;-61
2021/12/11 04:26:29;;;;;;;;;;;;;;;4.47;71.35;100889.97;5051930;28;19924;-60
2021/12/11 04:28:54;;;;;;;;;;;;;;;4.48;71.78;100897.19;5052982;28;19921;-61
2021/12/11 04:31:22;;;;;;;;;;;;;;;4.50;71.83;100897.81;5053157;28;19928;-61
2021/12/11 04:33:49;;;;;;;;;;;;;;;4.52;71.65;100897.59;5051760;28;19917;-60
2021/12/11 04:36:16;;;;;;;;;;;;;;;4.52;71.46;100898.47;5052865;28;19928;-61
2021/12/11 04:38:42;;;;;;;;;;;;;;;4.53;71.98;100902.91;5052034;28;19996;-61
2021/12/11 04:41:08;;;;;;;;;;;;;;;4.53;71.89;100902.91;5047439;28;20011;-61
2021/12/11 04:43:35;;;;;;;;;;;;;;;4.54;71.80;100904.56;5052264;28;20360;-61
2021/12/11 04:46:04;;;;;;;;;;;;;;;4.55;71.54;100913.66;5051532;28;19921;-61
2021/12/11 05:00:07;;;;;;;;;;;;;;;4.59;72.03;100942.41;5049318;28;20008;-61
2021/12/11 05:05:46;;;;;;;;;;;;;;;4.61;72.11;100940.31;5046844;28;19975;-61
2021/12/11 05:10:33;;;;;;;;;;;;;;;4.62;72.15;100953.00;5052250;28;19921;-61
2021/12/11 05:12:59;;;;;;;;;;;;;;;4.64;72.27;100964.66;5052420;28;19921;-61
2021/12/11 05:15:30;;;;;;;;;;;;;;;4.64;72.17;100951.75;5046558;28;20011;-61
2021/12/11 05:17:56;;;;;;;;;;;;;;;4.63;72.26;100950.03;5052481;28;20019;-61
2021/12/11 05:20:23;;;;;;;;;;;;;;;4.64;72.02;100962.75;5052550;28;20338;-60
2021/12/11 05:22:48;;;;;;;;;;;;;;;4.64;72.25;100973.75;5052220;28;19931;-60
2021/12/11 05:25:14;;;;;;;;;;;;;;;4.65;71.99;100983.66;5051607;28;19921;-61
2021/12/11 05:27:40;;;;;;;;;;;;;;;4.66;72.14;100981.75;5052885;28;19930;-60
2021/12/11 05:30:07;;;;;;;;;;;;;;;4.67;72.21;100984.28;5049013;28;20280;-60
2021/12/11 05:32:32;;;;;;;;;;;;;;;4.66;71.88;100985.34;5051265;28;19928;-61
2021/12/11 05:34:58;;;;;;;;;;;;;;;4.67;72.35;100980.69;5052842;28;19917;-61
2021/12/11 05:37:23;;;;;;;;;;;;;;;4.67;72.41;100981.53;5051138;28;19921;-60
2021/12/11 05:39:49;;;;;;;;;;;;;;;4.68;72.42;100985.16;5051469;28;19927;-60
2021/12/11 05:42:14;;;;;;;;;;;;;;;4.68;72.21;100997.00;5052109;28;19921;-60
2021/12/11 05:44:40;;;;;;;;;;;;;;;4.70;72.13;100993.19;5051677;28;20107;-60
2021/12/11 05:47:05;;;;;;;;;;;;;;;4.71;72.43;101000.38;5047015;28;19927;-60
2021/12/11 05:49:31;;;;;;;;;;;;;;;4.71;72.21;101003.97;5053606;28;19956;-61
2021/12/11 05:51:57;;;;;;;;;;;;;;;4.73;72.21;101003.78;5046896;28;19920;-60
2021/12/11 05:54:24;;;;;;;;;;;;;;;4.75;72.63;101007.13;5055460;28;19927;-60
2021/12/11 05:56:51;;;;;;;;;;;;;;;4.75;72.56;101009.88;5054696;28;20052;-61
2021/12/11 05:59:17;;;;;;;;;;;;;;;4.75;72.58;101015.38;5055601;28;20015;-60
2021/12/11 06:01:45;;;;;;;;;;;;;;;4.76;72.53;101008.84;5048688;28;20015;-60
2021/12/11 06:04:12;;;;;;;;;;;;;;;4.77;72.63;101008.63;5049932;28;19931;-60
2021/12/11 06:06:38;;;;;;;;;;;;;;;4.79;72.38;101013.91;5052108;28;19931;-60
2021/12/11 06:09:04;;;;;;;;;;;;;;;4.80;72.57;101021.13;5054973;28;19921;-60
2021/12/11 06:11:29;;;;;;;;;;;;;;;4.80;72.49;101019.22;5053856;28;19941;-60
2021/12/11 06:13:54;;;;;;;;;;;;;;;4.82;72.56;101016.25;5054159;28;19917;-60
2021/12/11 06:16:20;;;;;;;;;;;;;;;4.81;72.31;101023.66;5054634;28;19928;-60
2021/12/11 06:18:46;;;;;;;;;;;;;;;4.81;72.43;101029.16;5054448;28;19990;-60
2021/12/11 06:21:11;;;;;;;;;;;;;;;4.81;72.44;101029.16;5053700;28;20341;-60
2021/12/11 06:23:36;;;;;;;;;;;;;;;4.81;72.49;101037.41;5049818;28;19928;-60
2021/12/11 06:26:03;;;;;;;;;;;;;;;4.82;72.40;101043.75;5054628;28;19950;-60
2021/12/11 06:28:28;;;;;;;;;;;;;;;4.81;72.50;101037.41;5055332;28;19924;-59
2021/12/11 06:30:57;;;;;;;;;;;;;;;4.81;72.67;101039.31;5055567;28;19921;-59
2021/12/11 06:33:23;;;;;;;;;;;;;;;4.81;72.59;101047.56;5053900;28;20006;-60
2021/12/11 06:35:51;;;;;;;;;;;;;;;4.81;73.01;101050.31;5055891;28;19920;-60
2021/12/11 06:38:18;;;;;;;;;;;;;;;4.82;72.75;101057.50;5054922;28;19921;-59
2021/12/11 06:40:44;;;;;;;;;;;;;;;4.83;72.79;101061.94;5048652;28;20424;-59
2021/12/11 06:43:10;;;;;;;;;;;;;;;4.83;72.89;101059.19;5055198;28;20019;-58
2021/12/11 06:45:35;;;;;;;;;;;;;;;4.84;73.09;101070.00;5055153;28;20011;-60
2021/12/11 06:48:00;;;;;;;;;;;;;;;4.85;73.05;101074.44;5052983;28;20402;-60
2021/12/11 06:50:26;;;;;;;;;;;;;;;4.87;73.11;101079.69;5054441;28;19921;-60
2021/12/11 06:53:01;;;;;;;;;;;;;;;4.89;72.78;101083.09;5055057;28;19913;-60
2021/12/11 06:55:26;;;;;;;;;;;;;;;4.89;72.98;101080.34;5035899;28;19921;-60
2021/12/11 06:57:51;;;;;;;;;;;;;;;4.88;72.32;101089.66;5049171;28;20369;-60
2021/12/11 07:00:18;;;;;;;;;;;;;;;4.89;72.86;101091.34;5053595;28;20008;-60
2021/12/11 07:02:43;;;;;;;;;;;;;;;4.91;72.95;101094.72;5048464;28;19928;-60
2021/12/11 07:05:09;;;;;;;;;;;;;;;4.91;73.01;101100.22;5048409;28;19925;-60
2021/12/11 07:07:36;;;;;;;;;;;;;;;4.91;72.96;101092.84;5051811;28;19921;-61
2021/12/11 07:10:04;;;;;;;;;;;;;;;4.93;73.21;101109.13;5047940;28;19975;-60
2021/12/11 07:12:30;;;;;;;;;;;;;;;4.95;73.08;101109.75;5054724;28;19962;-61
2021/12/11 07:14:55;;;;;;;;;;;;;;;4.97;73.19;101110.41;5054266;28;20323;-61
2021/12/11 07:17:20;;;;;;;;;;;;;;;5.00;73.22;101114.66;5053225;28;19928;-61
2021/12/11 07:19:46;;;;;;;;;;;;;;;5.01;73.10;101122.69;5055024;28;19924;-61
2021/12/11 07:22:12;;;;;;;;;;;;;;;5.00;73.36;101118.25;5054307;28;19924;-61
2021/12/11 07:24:42;;;;;;;;;;;;;;;5.02;73.27;101121.63;5053431;28;19920;-61
2021/12/11 07:27:08;;;;;;;;;;;;;;;5.04;73.51;101127.78;5049613;28;20012;-60
2021/12/11 07:29:37;;;;;;;;;;;;;;;5.03;73.70;101141.72;5054344;28;19916;-61
2021/12/11 07:32:03;;;;;;;;;;;;;;;5.03;73.40;101139.84;5054529;28;19916;-61
2021/12/11 07:34:28;;;;;;;;;;;;;;;5.05;73.23;101145.13;5054386;28;19917;-61
2021/12/11 07:36:53;;;;;;;;;;;;;;;5.04;73.67;101152.53;5053183;28;19928;-61
2021/12/11 07:39:20;;;;;;;;;;;;;;;5.08;73.50;101142.78;5053842;28;19925;-61
2021/12/11 07:41:45;;;;;;;;;;;;;;;5.09;73.28;101146.41;5054329;28;20322;-61
2021/12/11 07:44:10;;;;;;;;;;;;;;;5.11;73.44;101158.91;5048536;28;19932;-61
2021/12/11 07:46:36;;;;;;;;;;;;;;;5.09;73.69;101158.25;5051794;28;20007;-60
2021/12/11 07:49:03;;;;;;;;;;;;;;;5.10;73.44;101159.09;5054223;28;19916;-60
2021/12/11 07:51:29;;;;;;;;;;;;;;;5.12;73.48;101159.75;5052695;28;19921;-61
2021/12/11 07:53:55;;;;;;;;;;;;;;;5.13;73.61;101166.94;5052006;28;19925;-60
2021/12/11 07:56:21;;;;;;;;;;;;;;;5.12;73.71;101168.84;5049614;28;19979;-61
2021/12/11 07:58:47;;;;;;;;;;;;;;;5.14;73.61;101177.72;5036761;28;20292;-60
2021/12/11 08:01:13;;;;;;;;;;;;;;;5.15;73.92;101184.09;5051326;28;19967;-60
2021/12/11 08:03:38;;;;;;;;;;;;;;;5.16;73.41;101186.63;5029424;28;19960;-60
2021/12/11 08:06:04;;;;;;;;;;;;;;;5.18;73.75;101190.00;5033488;28;19956;-60
2021/12/11 08:08:29;;;;;;;;;;;;;;;5.21;73.86;101183.22;5032412;28;20349;-60
2021/12/11 08:10:57;;;;;;;;;;;;;;;5.22;73.59;101184.91;5030382;28;19975;-60
2021/12/11 08:13:23;;;;;;;;;;;;;;;5.24;73.97;101190.22;5032979;28;19978;-59
2021/12/11 08:15:49;;;;;;;;;;;;;;;5.26;74.08;101204.63;5033353;28;20007;-60
2021/12/11 08:18:15;;;;;;;;;;;;;;;5.29;73.95;101206.97;5029820;28;19928;-60
2021/12/11 08:20:41;;;;;;;;;;;;;;;5.31;73.62;101213.13;5032687;28;19921;-60
2021/12/11 08:23:08;;;;;;;;;;;;;;;5.32;74.60;101217.56;5032962;28;20322;-60
2021/12/11 08:25:34;;;;;;;;;;;;;;;5.30;73.97;101211.41;5032730;28;19947;-60
2021/12/11 08:28:00;;;;;;;;;;;;;;;5.30;73.82;101220.50;5033325;28;19925;-60
2021/12/11 08:30:26;;;;;;;;;;;;;;;5.33;74.57;101233.00;5032289;28;19921;-60
2021/12/11 08:32:52;;;;;;;;;;;;;;;5.36;74.20;101227.94;5033664;28;19929;-59
2021/12/11 08:35:17;;;;;;;;;;;;;;;5.36;74.21;101235.34;5030473;28;20008;-60
2021/12/11 08:37:44;;;;;;;;;;;;;;;5.38;74.12;101239.59;5029392;28;19921;-59
2021/12/11 08:40:12;;;;;;;;;;;;;;;5.43;74.25;101246.38;5029867;28;19929;-61
2021/12/11 08:42:38;;;;;;;;;;;;;;;5.47;74.39;101265.00;5032843;28;19968;-60
2021/12/11 08:45:06;;;;;;;;;;;;;;;5.49;74.69;101242.75;5030457;28;19928;-61
2021/12/11 08:47:34;;;;;;;;;;;;;;;5.53;74.92;101253.13;5029800;28;19928;-61
2021/12/11 08:50:00;;;;;;;;;;;;;;;5.56;74.50;101252.72;5032116;28;20426;-61
2021/12/11 08:52:27;;;;;;;;;;;;;;;5.59;74.34;101268.00;5039370;28;19921;-61
2021/12/11 08:54:53;;;;;;;;;;;;;;;5.61;74.32;101274.13;5028118;28;19979;-60
2021/12/11 08:57:20;;;;;;;;;;;;;;;5.62;74.52;101273.94;5044086;28;19968;-60
2021/12/11 08:59:48;;;;;;;;;;;;;;;5.63;74.63;101272.88;5051293;28;19921;-60
2021/12/11 09:02:19;;;;;;;;;;;;;;;5.66;74.76;101279.88;5049445;28;20425;-59
2021/12/11 09:05:05;;;;;;;;;;;;;;;5.73;76.44;101285.34;5048642;28;19959;-59
2021/12/11 09:07:57;;;;;;;;;;;;;;;5.84;74.62;101290.25;5047375;28;19927;-60
2021/12/11 09:10:25;;;;;;;;;;;;;;;5.86;74.41;101301.91;5027411;28;19925;-60
2021/12/11 09:12:53;;;;;;;;;;;;;;;5.86;75.27;101312.94;5047157;28;20332;-60
2021/12/11 09:15:24;;;;;;;;;;;;;;;5.85;75.02;101316.72;5050328;28;19982;-59
2021/12/11 09:17:58;;;;;;;;;;;;;;;5.88;74.94;101332.84;5048398;28;19925;-60
2021/12/11 09:20:45;;;;;;;;;;;;;;;5.92;74.58;101334.16;5041227;28;19921;-60
2021/12/11 09:23:16;;;;;;;;;;;;;;;5.96;74.80;101340.94;5052063;28;19978;-59
2021/12/11 09:25:48;;;;;;;;;;;;;;;6.01;75.09;101343.94;5053630;28;20114;-59
2021/12/11 09:28:19;;;;;;;;;;;;;;;6.07;75.16;101348.56;5052722;28;19929;-60
2021/12/11 09:30:48;;;;;;;;;;;;;;;6.16;74.67;101357.47;5053447;28;19921;-59
2021/12/11 09:33:16;;;;;;;;;;;;;;;6.24;74.84;101354.50;5034920;28;19948;-59
2021/12/11 09:35:45;;;;;;;;;;;;;;;6.36;75.45;101365.75;5035372;28;19960;-59
2021/12/11 09:38:20;;;;;;;;;;;;;;;6.48;75.48;101369.53;5041797;28;19928;-60
2021/12/11 09:40:51;;;;;;;;;;;;;;;6.56;75.23;101374.00;5052659;28;20329;-59
2021/12/11 09:43:39;;;;;;;;;;;;;;;6.63;74.49;101391.38;5054845;28;19917;-59
2021/12/11 09:46:06;;;;;;;;;;;;;;;6.69;75.41;101390.53;5043312;28;19925;-60
2021/12/11 09:48:32;;;;;;;;;;;;;;;6.75;74.37;101389.66;5054832;28;19917;-60
2021/12/11 09:51:02;;;;;;;;;;;;;;;6.77;75.20;101406.03;5054600;28;19970;-60
2021/12/11 09:53:29;;;;;;;;;;;;;;;6.77;74.71;101406.03;5054501;28;20287;-59
2021/12/11 09:55:55;;;;;;;;;;;;;;;6.76;74.93;101407.06;5053305;28;19920;-60
2021/12/11 09:58:22;;;;;;;;;;;;;;;6.72;74.44;101408.56;5052499;28;20283;-59
2021/12/11 10:00:53;;;;;;;;;;;;;;;6.71;74.72;101404.13;5054938;28;20033;-60
2021/12/11 10:03:20;;;;;;;;;;;;;;;6.67;74.15;101409.22;5053563;28;19921;-59
2021/12/11 10:05:50;;;;;;;;;;;;;;;6.67;74.74;101408.38;5053572;28;19913;-59
2021/12/11 10:08:37;;;;;;;;;;;;;;;6.68;74.67;101415.56;5050637;28;20383;-59
2021/12/11 10:11:05;;;;;;;;;;;;;;;6.67;74.68;101422.16;5046114;28;20337;-63
2021/12/11 10:13:31;;;;;;;;;;;;;;;6.68;74.57;101432.13;5047848;28;19963;-59
2021/12/11 10:15:57;;;;;;;;;;;;;;;6.64;75.25;101429.81;5052211;28;20090;-59
2021/12/11 10:18:24;;;;;;;;;;;;;;;6.64;75.52;101431.69;5053474;28;20431;-59
2021/12/11 10:20:53;;;;;;;;;;;;;;;6.63;75.10;101446.56;5052908;28;20372;-59
2021/12/11 10:23:23;;;;;;;;;;;;;;;6.63;75.04;101441.88;5054414;28;19917;-59
2021/12/11 10:25:49;;;;;;;;;;;;;;;6.63;74.67;101447.41;5051726;28;19972;-59
2021/12/11 10:28:18;;;;;;;;;;;;;;;6.68;75.54;101445.91;5046973;28;19956;-59
2021/12/11 10:30:47;;;;;;;;;;;;;;;6.80;75.38;101447.00;5047321;28;19929;-59
2021/12/11 10:33:13;;;;;;;;;;;;;;;6.92;75.14;101450.78;5045031;28;20114;-59
2021/12/11 10:35:41;;;;;;;;;;;;;;;7.01;75.98;101446.75;5045021;28;20451;-67
2021/12/11 10:38:06;;;;;;;;;;;;;;;7.19;74.85;101459.88;5048544;28;20699;-60
2021/12/11 10:40:35;;;;;;;;;;;;;;;7.30;75.40;101463.88;5045811;28;19920;-59
2021/12/11 10:43:07;;;;;;;;;;;;;;;7.39;74.23;101459.81;5052009;28;20284;-60
2021/12/11 10:45:33;;;;;;;;;;;;;;;7.51;74.68;101460.84;5047374;28;19925;-59
2021/12/11 10:48:00;;;;;;;;;;;;;;;7.62;74.90;101462.94;5050461;28;20380;-59
2021/12/11 10:50:34;;;;;;;;;;;;;;;7.72;74.88;101464.38;5051804;28;19967;-60
2021/12/11 10:53:00;;;;;;;;;;;;;;;7.77;75.02;101479.22;5049578;28;19999;-60
2021/12/11 10:55:29;;;;;;;;;;;;;;;7.85;74.62;101467.91;5050770;28;20103;-60
2021/12/11 10:57:56;;;;;;;;;;;;;;;7.95;74.64;101478.50;5051694;28;19961;-60
2021/12/11 11:00:25;;;;;;;;;;;;;;;8.01;74.54;101483.13;5049691;28;19928;-60
2021/12/11 11:02:50;;;;;;;;;;;;;;;8.01;74.68;101482.28;5049822;28;19924;-61
2021/12/11 11:05:17;;;;;;;;;;;;;;;7.92;73.83;101492.75;5050692;28;20435;-60
2021/12/11 11:07:43;;;;;;;;;;;;;;;7.86;74.38;101494.50;5047539;28;19927;-61
2021/12/11 11:10:12;;;;;;;;;;;;;;;7.82;74.25;101501.53;5051051;28;19960;-60
2021/12/11 11:12:47;;;;;;;;;;;;;;;7.77;73.74;101512.38;5047521;28;19921;-61
2021/12/11 11:15:13;;;;;;;;;;;;;;;7.73;74.20;101513.03;5052074;28;20037;-60
2021/12/11 11:17:39;;;;;;;;;;;;;;;7.67;74.19;101513.91;5052156;28;19932;-60
2021/12/11 11:20:06;;;;;;;;;;;;;;;7.63;73.99;101519.88;5051229;28;19921;-61
2021/12/11 11:22:33;;;;;;;;;;;;;;;7.61;74.49;101532.19;5054586;28;20388;-60
2021/12/11 11:25:07;;;;;;;;;;;;;;;7.56;74.92;101530.09;5049450;28;19925;-60
2021/12/11 11:27:32;;;;;;;;;;;;;;;7.51;74.84;101537.34;5043757;28;20372;-60
2021/12/11 11:29:58;;;;;;;;;;;;;;;7.49;74.40;101533.94;5048208;28;19978;-60
2021/12/11 11:32:32;;;;;;;;;;;;;;;7.48;74.40;101538.63;5050379;28;20034;-60
2021/12/11 11:35:04;;;;;;;;;;;;;;;7.47;74.25;101542.44;5045362;28;19982;-61
2021/12/11 11:37:30;;;;;;;;;;;;;;;7.48;74.56;101535.84;5049067;28;19929;-61
2021/12/11 11:39:55;;;;;;;;;;;;;;;7.49;74.73;101544.97;5049336;28;20027;-60
2021/12/11 11:42:21;;;;;;;;;;;;;;;7.50;74.59;101553.03;5049705;28;20027;-60
2021/12/11 11:44:47;;;;;;;;;;;;;;;7.53;74.34;101551.78;5052212;28;19921;-60
2021/12/11 11:47:14;;;;;;;;;;;;;;;7.57;75.18;101555.78;5050136;28;19982;-61
2021/12/11 11:49:39;;;;;;;;;;;;;;;7.59;74.71;101565.56;5048258;28;19925;-61
2021/12/11 11:52:08;;;;;;;;;;;;;;;7.60;74.51;101558.13;5051847;28;19974;-60
2021/12/11 11:54:34;;;;;;;;;;;;;;;7.60;73.95;101567.28;5044653;28;19929;-61
2021/12/11 11:57:11;;;;;;;;;;;;;;;7.60;74.63;101566.41;5048487;28;19925;-61
2021/12/11 11:59:37;;;;;;;;;;;;;;;7.57;74.51;101561.31;5044748;28;19944;-62
2021/12/11 12:02:05;;;;;;;;;;;;;;;7.56;74.63;101562.41;5045413;28;19925;-61
2021/12/11 12:04:31;;;;;;;;;;;;;;;7.54;74.38;101573.63;5048567;28;19928;-61
2021/12/11 12:07:00;;;;;;;;;;;;;;;7.53;74.66;101569.19;5051210;28;19928;-62
2021/12/11 12:09:26;;;;;;;;;;;;;;;7.50;74.38;101577.91;5051379;28;19925;-62
2021/12/11 12:11:53;;;;;;;;;;;;;;;7.49;74.78;101584.50;5050312;28;19944;-62
2021/12/11 12:14:20;;;;;;;;;;;;;;;7.47;74.54;101586.66;5045919;28;19961;-62
2021/12/11 12:16:46;;;;;;;;;;;;;;;7.48;74.57;101588.34;5044139;28;20422;-63
2021/12/11 12:19:12;;;;;;;;;;;;;;;7.50;74.75;101593.63;5047588;28;19921;-63
2021/12/11 12:21:39;;;;;;;;;;;;;;;7.51;74.36;101590.66;5047115;28;19928;-63
2021/12/11 12:24:04;;;;;;;;;;;;;;;7.52;74.76;101597.03;5047650;28;20030;-61
2021/12/11 12:26:30;;;;;;;;;;;;;;;7.50;74.16;101597.25;5041852;28;19924;-61
2021/12/11 12:28:56;;;;;;;;;;;;;;;7.50;74.72;101601.91;5047431;28;19920;-61
2021/12/11 12:31:24;;;;;;;;;;;;;;;7.48;73.63;101602.16;5050751;28;19927;-62
2021/12/11 12:33:49;;;;;;;;;;;;;;;7.48;74.35;101591.09;5049000;28;19967;-61
2021/12/11 12:36:15;;;;;;;;;;;;;;;7.49;74.59;101594.69;5049191;28;19921;-61
2021/12/11 12:38:42;;;;;;;;;;;;;;;7.50;74.69;101599.16;5049596;28;20398;-61
2021/12/11 12:41:12;;;;;;;;;;;;;;;7.53;73.96;101595.97;5048980;28;19927;-61
2021/12/11 12:46:13;;;;;;;;;;;;;;;7.55;74.64;101605.75;5046606;28;19964;-60
2021/12/11 12:48:39;;;;;;;;;;;;;;;7.56;74.10;101604.69;5046831;28;19924;-60
2021/12/11 12:51:06;;;;;;;;;;;;;;;7.57;73.84;101611.06;5047074;28;20253;-61
2021/12/11 12:53:35;;;;;;;;;;;;;;;7.58;74.25;101607.22;5045584;28;19975;-60
2021/12/11 12:56:09;;;;;;;;;;;;;;;7.58;73.53;101604.44;5051104;28;19924;-60
2021/12/11 12:58:41;;;;;;;;;;;;;;;7.59;73.89;101609.78;5051120;28;19995;-60
2021/12/11 13:01:09;;;;;;;;;;;;;;;7.62;74.48;101628.69;5045617;28;19921;-60
2021/12/11 13:03:35;;;;;;;;;;;;;;;7.61;74.83;101626.13;5045356;28;19975;-60
2021/12/11 13:06:09;;;;;;;;;;;;;;;7.60;74.19;101636.34;5043515;28;19920;-61
2021/12/11 13:08:36;;;;;;;;;;;;;;;7.60;74.46;101636.34;5045150;28;19927;-61
2021/12/11 13:11:05;;;;;;;;;;;;;;;7.60;74.26;101646.53;5042944;28;19982;-61